createdAt,value
2023-01-17T00:01:46.637Z,0.50
2023-01-17T00:04:31.861Z,0.60
2023-01-17T00:07:16.639Z,1.43
2023-01-17T00:09:56.660Z,0.30
2023-01-17T00:12:23.994Z,0.80
2023-01-17T00:14:51.550Z,1.40
2023-01-17T00:17:17.938Z,1.03
2023-01-17T00:20:02.919Z,0.63
2023-01-17T00:22:49.257Z,0.80
2023-01-17T00:25:35.816Z,0.80
2023-01-17T00:28:02.422Z,0.77
2023-01-17T00:30:29.193Z,0.80
2023-01-17T00:32:55.498Z,1.10
2023-01-17T00:35:22.755Z,0.93
2023-01-17T00:37:49.053Z,0.70
2023-01-17T00:40:15.415Z,1.03
2023-01-17T00:42:42.738Z,0.57
2023-01-17T00:45:27.829Z,0.60
2023-01-17T00:48:12.721Z,0.87
2023-01-17T00:50:57.628Z,0.80
2023-01-17T00:53:42.504Z,0.93
2023-01-17T00:56:27.275Z,1.03
2023-01-17T00:59:12.738Z,0.60
2023-01-17T01:01:57.731Z,0.60
2023-01-17T01:04:44.763Z,1.00
2023-01-17T01:07:29.724Z,0.40
2023-01-17T01:10:14.485Z,0.67
2023-01-17T01:12:59.389Z,0.87
2023-01-17T01:15:44.253Z,1.33
2023-01-17T01:18:30.181Z,0.60
2023-01-17T01:21:20.247Z,0.60
2023-01-17T01:24:05.058Z,0.50
2023-01-17T01:26:49.972Z,0.67
2023-01-17T01:29:34.816Z,0.50
2023-01-17T01:32:19.624Z,0.70
2023-01-17T01:34:45.999Z,0.40
2023-01-17T01:37:12.277Z,0.70
2023-01-17T01:39:38.581Z,0.63
2023-01-17T01:42:10.577Z,0.93
2023-01-17T01:44:48.933Z,1.00
2023-01-17T01:47:19.096Z,1.00
2023-01-17T01:49:45.451Z,0.70
2023-01-17T01:52:11.921Z,0.60
2023-01-17T01:54:42.940Z,1.30
2023-01-17T01:57:10.037Z,0.30
2023-01-17T01:59:38.907Z,1.13
2023-01-17T02:02:06.693Z,0.53
2023-01-17T02:04:33.237Z,0.83
2023-01-17T02:07:25.738Z,0.70
2023-01-17T02:09:52.920Z,0.37
2023-01-17T02:12:19.963Z,0.50
2023-01-17T02:14:46.396Z,0.60
2023-01-17T02:17:18.471Z,0.40
2023-01-17T02:19:50.673Z,0.40
2023-01-17T02:22:16.943Z,0.70
2023-01-17T02:24:58.204Z,0.67
2023-01-17T02:27:25.975Z,0.50
2023-01-17T02:30:11.029Z,0.50
2023-01-17T02:32:37.411Z,0.40
2023-01-17T02:35:09.671Z,0.70
2023-01-17T02:37:56.080Z,0.93
2023-01-17T02:40:27.523Z,0.50
2023-01-17T02:42:56.362Z,0.80
2023-01-17T02:45:23.011Z,0.97
2023-01-17T02:47:49.359Z,0.83
2023-01-17T02:50:18.054Z,1.00
2023-01-17T02:53:02.523Z,1.17
2023-01-17T02:55:41.148Z,0.93
2023-01-17T02:58:33.961Z,1.17
2023-01-17T03:01:20.668Z,0.70
2023-01-17T03:03:53.820Z,0.77
2023-01-17T03:06:36.470Z,1.37
2023-01-17T03:09:03.404Z,0.23
2023-01-17T03:11:29.772Z,1.00
2023-01-17T03:13:56.951Z,0.33
2023-01-17T03:16:24.022Z,0.57
2023-01-17T03:18:50.361Z,0.73
2023-01-17T03:21:16.780Z,0.60
2023-01-17T03:23:43.173Z,0.40
2023-01-17T03:26:09.535Z,0.80
2023-01-17T03:28:36.020Z,0.40
2023-01-17T03:31:02.562Z,0.50
2023-01-17T03:33:28.986Z,1.03
2023-01-17T03:35:58.020Z,0.40
2023-01-17T03:38:25.649Z,0.57
2023-01-17T03:40:52.306Z,0.50
2023-01-17T03:43:18.731Z,0.27
2023-01-17T03:45:45.112Z,0.67
2023-01-17T03:48:11.742Z,0.60
2023-01-17T03:50:38.070Z,0.70
2023-01-17T03:53:04.432Z,0.70
2023-01-17T03:55:30.735Z,0.20
2023-01-17T03:57:57.113Z,0.53
2023-01-17T04:00:23.421Z,0.57
2023-01-17T04:02:49.830Z,0.80
2023-01-17T04:05:17.020Z,0.43
2023-01-17T04:07:43.311Z,1.03
2023-01-17T04:10:09.860Z,0.60
2023-01-17T04:12:36.149Z,0.80
2023-01-17T04:15:02.445Z,0.80
2023-01-17T04:17:28.933Z,0.57
2023-01-17T04:19:55.370Z,0.30
2023-01-17T04:22:21.756Z,0.70
2023-01-17T04:24:48.079Z,0.40
2023-01-17T04:27:14.463Z,0.50
2023-01-17T04:29:40.894Z,0.43
2023-01-17T04:32:07.301Z,0.50
2023-01-17T04:34:33.607Z,0.70
2023-01-17T04:36:59.931Z,0.40
2023-01-17T04:39:26.224Z,0.30
2023-01-17T04:41:52.588Z,0.33
2023-01-17T04:44:18.924Z,0.37
2023-01-17T04:46:45.192Z,0.47
2023-01-17T04:49:11.495Z,0.43
2023-01-17T04:51:37.810Z,0.70
2023-01-17T04:54:04.203Z,0.37
2023-01-17T04:56:30.504Z,0.60
2023-01-17T04:58:58.123Z,0.50
2023-01-17T05:01:25.814Z,0.50
2023-01-17T05:03:52.321Z,0.50
2023-01-17T05:06:18.653Z,0.70
2023-01-17T05:08:44.985Z,0.40
2023-01-17T05:11:11.290Z,0.73
2023-01-17T05:13:37.605Z,1.03
2023-01-17T05:16:04.178Z,0.50
2023-01-17T05:18:30.552Z,0.50
2023-01-17T05:21:00.876Z,0.20
2023-01-17T05:23:27.207Z,0.30
2023-01-17T05:25:53.491Z,0.57
2023-01-17T05:28:19.785Z,0.50
2023-01-17T05:30:46.118Z,0.63
2023-01-17T05:33:12.418Z,0.60
2023-01-17T05:35:38.807Z,0.40
2023-01-17T05:38:05.186Z,0.53
2023-01-17T05:40:32.405Z,0.50
2023-01-17T05:42:59.632Z,0.77
2023-01-17T05:45:28.413Z,0.77
2023-01-17T05:47:55.419Z,0.53
2023-01-17T05:50:27.730Z,0.80
2023-01-17T05:52:55.446Z,0.70
2023-01-17T05:55:22.221Z,0.50
2023-01-17T05:57:48.921Z,0.57
2023-01-17T06:00:15.404Z,0.60
2023-01-17T06:02:41.858Z,0.40
2023-01-17T06:05:08.335Z,0.90
2023-01-17T06:07:34.746Z,1.13
2023-01-17T06:10:01.089Z,0.43
2023-01-17T06:12:27.438Z,0.40
2023-01-17T06:14:53.971Z,0.63
2023-01-17T06:17:20.403Z,0.40
2023-01-17T06:19:46.681Z,0.53
2023-01-17T06:22:12.965Z,0.63
2023-01-17T06:24:39.271Z,0.83
2023-01-17T06:27:05.625Z,0.53
2023-01-17T06:29:32.005Z,0.77
2023-01-17T06:32:00.277Z,0.47
2023-01-17T06:34:27.991Z,0.70
2023-01-17T06:36:54.322Z,0.77
2023-01-17T06:39:20.712Z,0.40
2023-01-17T06:41:47.079Z,0.50
2023-01-17T06:44:13.407Z,0.80
2023-01-17T06:46:40.822Z,0.60
2023-01-17T06:49:07.153Z,0.90
2023-01-17T06:51:33.489Z,0.60
2023-01-17T06:53:59.796Z,0.30
2023-01-17T06:56:26.220Z,0.87
2023-01-17T06:58:52.737Z,0.80
2023-01-17T07:01:19.143Z,0.70
2023-01-17T07:03:45.608Z,0.90
2023-01-17T07:06:11.903Z,0.57
2023-01-17T07:08:38.231Z,0.53
2023-01-17T07:11:05.915Z,0.53
2023-01-17T07:13:36.531Z,0.60
2023-01-17T07:16:04.419Z,0.50
2023-01-17T07:18:31.028Z,0.80
2023-01-17T07:20:57.375Z,0.73
2023-01-17T07:23:24.447Z,0.70
2023-01-17T07:25:51.762Z,0.60
2023-01-17T07:28:18.131Z,0.50
2023-01-17T07:30:44.457Z,0.87
2023-01-17T07:33:10.873Z,0.90
2023-01-17T07:35:37.695Z,0.50
2023-01-17T07:38:05.707Z,0.57
2023-01-17T07:40:33.535Z,0.50
2023-01-17T07:43:13.492Z,0.47
2023-01-17T07:45:43.398Z,0.60
2023-01-17T07:48:10.287Z,0.43
2023-01-17T07:50:36.746Z,0.50
2023-01-17T07:53:03.657Z,0.70
2023-01-17T07:55:30.119Z,0.40
2023-01-17T07:57:56.618Z,0.47
2023-01-17T08:00:23.250Z,0.80
2023-01-17T08:02:49.603Z,0.40
2023-01-17T08:05:16.121Z,0.60
2023-01-17T08:07:42.524Z,0.43
2023-01-17T08:10:13.123Z,0.70
2023-01-17T08:12:39.416Z,0.50
2023-01-17T08:15:06.098Z,0.57
2023-01-17T08:17:32.382Z,0.43
2023-01-17T08:19:58.788Z,0.50
2023-01-17T08:22:25.189Z,0.50
2023-01-17T08:24:51.525Z,0.63
2023-01-17T08:27:17.853Z,0.67
2023-01-17T08:29:47.179Z,0.70
2023-01-17T08:32:13.606Z,0.60
2023-01-17T08:34:39.900Z,0.40
2023-01-17T08:37:06.311Z,0.50
2023-01-17T08:39:32.979Z,0.40
2023-01-17T08:41:59.315Z,0.40
2023-01-17T08:44:25.709Z,0.50
2023-01-17T08:46:52.005Z,0.43
2023-01-17T08:49:18.410Z,0.50
2023-01-17T08:51:44.794Z,0.40
2023-01-17T08:54:14.577Z,0.50
2023-01-17T08:56:42.827Z,0.50
2023-01-17T08:59:12.606Z,0.50
2023-01-17T09:01:42.053Z,0.60
2023-01-17T09:04:09.019Z,0.40
2023-01-17T09:06:45.205Z,0.30
2023-01-17T09:09:11.749Z,0.30
2023-01-17T09:11:38.170Z,0.37
2023-01-17T09:14:04.536Z,0.43
2023-01-17T09:16:31.119Z,0.53
2023-01-17T09:18:58.827Z,0.87
2023-01-17T09:21:26.175Z,0.50
2023-01-17T09:23:53.178Z,0.30
2023-01-17T09:26:21.479Z,0.30
2023-01-17T09:28:48.316Z,0.40
2023-01-17T09:31:17.288Z,0.30
2023-01-17T09:33:44.614Z,0.30
2023-01-17T09:36:10.969Z,0.47
2023-01-17T09:38:37.492Z,0.30
2023-01-17T09:41:03.939Z,0.30
2023-01-17T09:43:44.312Z,0.40
2023-01-17T09:46:15.061Z,0.40
2023-01-17T09:48:42.970Z,0.40
2023-01-17T09:51:21.591Z,0.40
2023-01-17T09:53:47.984Z,0.60
2023-01-17T09:56:24.628Z,0.43
2023-01-17T09:59:09.903Z,0.37
2023-01-17T10:02:02.825Z,0.60
2023-01-17T10:04:38.205Z,0.67
2023-01-17T10:07:30.927Z,0.70
2023-01-17T10:09:57.214Z,0.60
2023-01-17T10:12:41.919Z,1.13
2023-01-17T10:15:08.606Z,0.60
2023-01-17T10:17:46.839Z,0.53
2023-01-17T10:20:25.667Z,0.40
2023-01-17T10:22:58.080Z,0.67
2023-01-17T10:25:25.391Z,0.53
2023-01-17T10:28:04.541Z,0.47
2023-01-17T10:30:36.499Z,0.50
2023-01-17T10:33:09.129Z,1.00
2023-01-17T10:35:37.404Z,0.37
2023-01-17T10:38:05.881Z,0.60
2023-01-17T10:40:52.544Z,0.57
2023-01-17T10:43:22.058Z,0.53
2023-01-17T10:45:51.558Z,0.70
2023-01-17T10:48:29.937Z,0.70
2023-01-17T10:51:02.614Z,0.63
2023-01-17T10:53:44.820Z,0.63
2023-01-17T10:56:14.617Z,0.60
2023-01-17T10:58:41.137Z,0.73
2023-01-17T11:01:13.939Z,0.57
2023-01-17T11:03:40.464Z,0.60
2023-01-17T11:06:20.602Z,0.60
2023-01-17T11:08:50.652Z,0.87
2023-01-17T11:11:17.367Z,0.60
2023-01-17T11:13:45.562Z,1.10
2023-01-17T11:16:17.994Z,0.90
2023-01-17T11:18:44.915Z,0.70
2023-01-17T11:21:24.202Z,0.90
2023-01-17T11:23:57.216Z,0.63
2023-01-17T11:26:25.596Z,0.30
2023-01-17T11:28:52.324Z,0.50
2023-01-17T11:31:18.635Z,0.50
2023-01-17T11:33:47.810Z,0.70
2023-01-17T11:36:20.155Z,0.50
2023-01-17T11:38:58.668Z,0.70
2023-01-17T11:41:27.863Z,0.60
2023-01-17T11:43:55.351Z,0.50
2023-01-17T11:46:22.175Z,0.47
2023-01-17T11:49:01.501Z,0.50
2023-01-17T11:51:31.697Z,0.40
2023-01-17T11:54:07.301Z,0.50
2023-01-17T11:56:35.768Z,0.60
2023-01-17T11:59:28.406Z,0.33
2023-01-17T12:01:55.832Z,0.50
2023-01-17T12:04:24.165Z,0.57
2023-01-17T12:06:57.968Z,0.53
2023-01-17T12:09:25.910Z,0.63
2023-01-17T12:12:28.722Z,0.43
2023-01-17T12:15:04.632Z,0.30
2023-01-17T12:17:54.134Z,0.40
2023-01-17T12:20:24.849Z,0.20
2023-01-17T12:22:51.117Z,0.43
2023-01-17T12:25:26.863Z,0.40
2023-01-17T12:28:22.836Z,0.47
2023-01-17T12:30:58.033Z,0.60
2023-01-17T12:33:37.717Z,0.67
2023-01-17T12:36:33.058Z,0.50
2023-01-17T12:39:03.232Z,0.60
2023-01-17T12:41:35.333Z,0.33
2023-01-17T12:44:01.763Z,0.40
2023-01-17T12:46:33.917Z,0.47
2023-01-17T12:49:08.567Z,0.60
2023-01-17T12:51:37.680Z,0.50
2023-01-17T12:54:22.913Z,0.47
2023-01-17T12:56:52.309Z,0.50
2023-01-17T12:59:39.720Z,0.30
2023-01-17T13:02:21.023Z,0.83
2023-01-17T13:04:58.908Z,0.60
2023-01-17T13:07:37.738Z,0.60
2023-01-17T13:10:16.052Z,0.43
2023-01-17T13:12:42.717Z,0.63
2023-01-17T13:15:15.523Z,0.40
2023-01-17T13:17:46.251Z,0.50
2023-01-17T13:20:19.138Z,0.40
2023-01-17T13:22:46.101Z,0.50
2023-01-17T13:25:12.420Z,0.60
2023-01-17T13:27:57.582Z,0.40
2023-01-17T13:30:43.473Z,0.40
2023-01-17T13:33:09.915Z,0.40
2023-01-17T13:35:43.538Z,0.53
2023-01-17T13:38:28.681Z,0.40
2023-01-17T13:41:08.342Z,0.30
2023-01-17T13:43:36.040Z,0.50
2023-01-17T13:46:03.565Z,0.30
2023-01-17T13:48:31.426Z,0.37
2023-01-17T13:50:58.962Z,0.30
2023-01-17T13:53:34.187Z,0.60
2023-01-17T13:56:26.991Z,1.10
2023-01-17T13:59:00.526Z,0.50
2023-01-17T14:01:34.678Z,0.30
2023-01-17T14:04:02.137Z,0.53
2023-01-17T14:06:28.509Z,0.30
2023-01-17T14:09:00.107Z,0.40
2023-01-17T14:11:26.646Z,0.30
2023-01-17T14:13:52.924Z,0.20
2023-01-17T14:16:23.172Z,0.20
2023-01-17T14:18:49.937Z,0.30
2023-01-17T14:21:27.430Z,0.33
2023-01-17T14:23:59.828Z,0.43
2023-01-17T14:26:28.467Z,0.40
2023-01-17T14:28:56.157Z,0.30
2023-01-17T14:31:23.279Z,0.40
2023-01-17T14:33:49.620Z,0.20
2023-01-17T14:36:34.597Z,0.27
2023-01-17T14:39:00.921Z,0.40
2023-01-17T14:41:28.340Z,0.63
2023-01-17T14:43:55.225Z,0.43
2023-01-17T14:46:26.374Z,0.30
2023-01-17T14:48:59.907Z,0.70
2023-01-17T14:51:26.565Z,0.33
2023-01-17T14:54:00.120Z,0.50
2023-01-17T14:56:27.150Z,0.50
2023-01-17T14:59:11.983Z,0.50
2023-01-17T15:01:38.573Z,0.50
2023-01-17T15:04:05.056Z,0.37
2023-01-17T15:06:38.731Z,0.50
2023-01-17T15:09:18.399Z,0.33
2023-01-17T15:11:45.509Z,0.60
2023-01-17T15:14:17.831Z,0.40
2023-01-17T15:16:44.226Z,0.60
2023-01-17T15:19:11.745Z,0.40
2023-01-17T15:21:42.472Z,0.60
2023-01-17T15:24:13.019Z,0.30
2023-01-17T15:26:40.895Z,0.30
2023-01-17T15:29:08.457Z,0.30
2023-01-17T15:31:46.812Z,0.40
2023-01-17T15:34:17.591Z,0.47
2023-01-17T15:36:48.061Z,0.60
2023-01-17T15:39:30.163Z,0.50
2023-01-17T15:42:00.597Z,0.50
2023-01-17T15:44:46.893Z,0.40
2023-01-17T15:47:43.543Z,0.43
2023-01-17T15:50:26.544Z,0.50
2023-01-17T15:53:00.976Z,0.40
2023-01-17T15:55:32.085Z,0.40
2023-01-17T15:57:58.971Z,0.50
2023-01-17T16:00:32.680Z,0.53
2023-01-17T16:02:59.428Z,0.60
2023-01-17T16:05:27.610Z,0.43
2023-01-17T16:07:55.171Z,0.53
2023-01-17T16:10:24.084Z,0.90
2023-01-17T16:12:52.573Z,0.63
2023-01-17T16:15:20.290Z,0.53
2023-01-17T16:17:47.753Z,0.63
2023-01-17T16:20:22.011Z,0.60
2023-01-17T16:22:49.129Z,0.60
2023-01-17T16:25:16.917Z,0.73
2023-01-17T16:27:43.381Z,0.60
2023-01-17T16:30:10.970Z,0.70
2023-01-17T16:32:37.282Z,0.70
2023-01-17T16:35:03.803Z,0.73
2023-01-17T16:37:30.086Z,0.70
2023-01-17T16:39:56.431Z,0.70
2023-01-17T16:42:22.705Z,0.60
2023-01-17T16:44:49.153Z,0.90
2023-01-17T16:47:15.457Z,0.93
2023-01-17T16:49:41.803Z,0.70
2023-01-17T16:52:08.154Z,0.80
2023-01-17T16:54:34.597Z,0.63
2023-01-17T16:57:00.958Z,0.40
2023-01-17T16:59:34.575Z,0.80
2023-01-17T17:02:09.712Z,0.90
2023-01-17T17:04:36.012Z,0.87
2023-01-17T17:07:02.277Z,0.43
2023-01-17T17:09:28.649Z,0.60
2023-01-17T17:11:54.944Z,0.53
2023-01-17T17:14:21.298Z,0.60
2023-01-17T17:16:51.638Z,0.60
2023-01-17T17:19:18.815Z,0.77
2023-01-17T17:21:45.530Z,0.60
2023-01-17T17:24:12.927Z,0.97
2023-01-17T17:26:40.094Z,0.73
2023-01-17T17:29:10.561Z,0.77
2023-01-17T17:31:37.547Z,0.93
2023-01-17T17:34:04.402Z,1.13
2023-01-17T17:36:31.024Z,1.27
2023-01-17T17:38:57.852Z,1.10
2023-01-17T17:41:28.382Z,1.07
2023-01-17T17:43:55.051Z,0.87
2023-01-17T17:46:22.198Z,1.30
2023-01-17T17:48:48.637Z,1.27
2023-01-17T17:51:28.452Z,1.10
2023-01-17T17:53:55.664Z,1.40
2023-01-17T17:56:22.761Z,1.20
2023-01-17T17:58:49.780Z,0.80
2023-01-17T18:01:16.437Z,0.80
2023-01-17T18:03:42.839Z,0.97
2023-01-17T18:06:10.709Z,1.10
2023-01-17T18:08:37.368Z,0.60
2023-01-17T18:11:08.307Z,0.93
2023-01-17T18:13:34.637Z,0.77
2023-01-17T18:16:07.669Z,0.80
2023-01-17T18:18:38.372Z,1.03
2023-01-17T18:21:06.544Z,0.93
2023-01-17T18:23:32.880Z,0.70
2023-01-17T18:25:59.309Z,1.00
2023-01-17T18:28:25.607Z,0.67
2023-01-17T18:30:51.912Z,1.10
2023-01-17T18:33:18.207Z,0.77
2023-01-17T18:35:52.883Z,0.90
2023-01-17T18:38:19.278Z,1.03
2023-01-17T18:40:45.545Z,1.20
2023-01-17T18:43:11.930Z,1.10
2023-01-17T18:45:38.234Z,1.00
2023-01-17T18:48:04.768Z,1.33
2023-01-17T18:50:32.106Z,1.40
2023-01-17T18:52:58.427Z,1.00
2023-01-17T18:55:24.721Z,1.27
2023-01-17T18:57:51.043Z,1.03
2023-01-17T19:00:18.657Z,0.90
2023-01-17T19:02:47.630Z,1.60
2023-01-17T19:05:14.792Z,1.13
2023-01-17T19:07:41.098Z,1.10
2023-01-17T19:10:07.628Z,1.00
2023-01-17T19:12:33.915Z,1.33
2023-01-17T19:15:00.331Z,1.03
2023-01-17T19:17:26.763Z,1.50
2023-01-17T19:19:53.112Z,1.23
2023-01-17T19:22:21.624Z,1.13
2023-01-17T19:24:47.948Z,1.07
2023-01-17T19:27:14.607Z,1.20
2023-01-17T19:29:40.938Z,1.40
2023-01-17T19:32:09.648Z,1.57
2023-01-17T19:34:36.054Z,1.03
2023-01-17T19:37:02.962Z,1.23
2023-01-17T19:39:31.152Z,1.20
2023-01-17T19:41:57.462Z,1.23
2023-01-17T19:44:23.781Z,1.90
2023-01-17T19:46:50.109Z,1.60
2023-01-17T19:49:19.716Z,2.17
2023-01-17T19:51:46.044Z,2.33
2023-01-17T19:54:15.173Z,2.43
2023-01-17T19:56:41.499Z,2.47
2023-01-17T19:59:07.908Z,2.60
2023-01-17T20:01:34.869Z,1.97
2023-01-17T20:04:02.212Z,2.43
2023-01-17T20:06:30.144Z,2.20
2023-01-17T20:08:56.615Z,2.40
2023-01-17T20:11:24.113Z,2.67
2023-01-17T20:13:54.377Z,2.73
2023-01-17T20:16:21.168Z,2.70
2023-01-17T20:18:47.543Z,4.13
2023-01-17T20:21:13.857Z,4.80
2023-01-17T20:23:44.558Z,5.33
2023-01-17T20:26:11.608Z,4.13
2023-01-17T20:28:39.319Z,3.87
2023-01-17T20:31:07.561Z,3.67
2023-01-17T20:33:35.074Z,3.83
2023-01-17T20:36:10.176Z,4.07
2023-01-17T20:38:43.794Z,3.63
2023-01-17T20:41:13.132Z,3.13
2023-01-17T20:43:40.027Z,2.90
2023-01-17T20:46:06.458Z,3.37
2023-01-17T20:48:33.069Z,3.03
2023-01-17T20:51:05.695Z,2.87
2023-01-17T20:53:33.327Z,3.00
2023-01-17T20:55:59.671Z,3.70
2023-01-17T20:58:26.317Z,3.13
2023-01-17T21:00:54.276Z,3.10
2023-01-17T21:03:20.635Z,2.90
2023-01-17T21:05:46.939Z,2.73
2023-01-17T21:08:17.168Z,3.27
2023-01-17T21:10:46.552Z,3.03
2023-01-17T21:13:12.872Z,2.90
2023-01-17T21:15:47.176Z,2.73
2023-01-17T21:18:14.358Z,3.37
2023-01-17T21:20:40.855Z,3.20
2023-01-17T21:23:08.967Z,2.90
2023-01-17T21:25:38.507Z,3.13
2023-01-17T21:28:07.505Z,2.83
2023-01-17T21:30:33.793Z,2.43
2023-01-17T21:33:00.088Z,2.20
2023-01-17T21:35:30.301Z,2.63
2023-01-17T21:37:56.890Z,2.33
2023-01-17T21:40:23.445Z,2.70
2023-01-17T21:42:50.811Z,3.00
2023-01-17T21:45:17.325Z,2.80
2023-01-17T21:47:44.533Z,2.53
2023-01-17T21:50:11.086Z,2.73
2023-01-17T21:52:37.769Z,2.80
2023-01-17T21:55:22.963Z,2.90
2023-01-17T21:58:07.625Z,2.90
2023-01-17T22:00:33.998Z,3.03
2023-01-17T22:03:00.413Z,3.00
2023-01-17T22:05:26.861Z,3.90
2023-01-17T22:08:11.639Z,3.30
2023-01-17T22:10:44.691Z,3.30
2023-01-17T22:13:14.498Z,2.90
2023-01-17T22:15:40.825Z,2.90
2023-01-17T22:18:07.239Z,3.43
2023-01-17T22:20:34.109Z,2.97
2023-01-17T22:23:00.459Z,2.80
2023-01-17T22:25:26.846Z,3.00
2023-01-17T22:27:53.274Z,2.70
2023-01-17T22:30:19.591Z,3.50
2023-01-17T22:32:45.911Z,2.60
2023-01-17T22:35:12.299Z,2.90
2023-01-17T22:37:38.625Z,2.20
2023-01-17T22:40:05.861Z,2.43
2023-01-17T22:42:32.817Z,2.50
2023-01-17T22:44:59.108Z,2.50
2023-01-17T22:47:25.646Z,2.27
2023-01-17T22:49:51.985Z,2.37
2023-01-17T22:52:18.386Z,2.93
2023-01-17T22:54:44.866Z,3.07
2023-01-17T22:57:11.239Z,2.50
2023-01-17T22:59:37.705Z,2.03
2023-01-17T23:02:03.992Z,2.03
2023-01-17T23:04:30.546Z,2.10
2023-01-17T23:06:57.517Z,2.30
2023-01-17T23:09:23.820Z,2.00
2023-01-17T23:11:52.719Z,2.20
2023-01-17T23:14:29.355Z,1.57
2023-01-17T23:17:15.319Z,2.00
2023-01-17T23:19:46.564Z,1.73
2023-01-17T23:22:17.395Z,1.30
2023-01-17T23:24:45.782Z,2.13
2023-01-17T23:27:33.060Z,2.03
2023-01-17T23:29:59.398Z,1.50
2023-01-17T23:32:26.176Z,1.40
2023-01-17T23:34:52.680Z,1.30
2023-01-17T23:37:20.094Z,1.70
2023-01-17T23:39:46.446Z,1.30
2023-01-17T23:42:31.567Z,1.70
2023-01-17T23:44:57.917Z,1.37
2023-01-17T23:47:24.348Z,1.13
2023-01-17T23:49:50.768Z,1.00
2023-01-17T23:52:17.088Z,1.23
2023-01-17T23:54:43.401Z,1.27
2023-01-17T23:57:09.760Z,1.07
2023-01-17T23:59:36.174Z,1.43
